Main page
METAR-TAF:

METAR-TAF

Airports :

Chaudhary Charan Singh International Airport

Lucknow, India

latitude: 26-45N, longitude: 080-53E, elevation: 122 m

Current weather observation

The report was made 44 minutes ago, at 04:00 UTC
Wind 4 kt from the North/Northwest
Temperature 17°C
Humidity 88%
Pressure 1020 hPa
Visibility: 2000 m
Scattered clouds at a height of 2000 ft
Broken clouds at a height of 10000 ft
mist

METAR: VILK 150400Z 34004KT 2000 BR SCT020 BKN100 17/15 Q1020 NOSIG

Time: 10:14 (04:44 UTC)

Forecast

The report was made 2 hours and 44 minutes ago, at 02:00 UTC
Forecast valid from 15 at 03 UTC to 15 at 12 UTC
Wind 3 kt from the West
Visibility: 1500 m
Scattered clouds at a height of 2000 ft
Broken clouds at a height of 10000 ft
mist
Becoming
from 15 at 06 UTC to 15 at 08 UTC
Visibility: 2000 m
Scattered clouds at a height of 2000 ft
mist, haze

TAF: VILK 150200Z 1503/1512 27003KT 1500 BR SCT020 BKN100 BECMG 1506/1508 2000 BR HZ SCT020 BK100

Weather observations and forecasts of more than 4000 airports (METAR and TAF reports).

The available stations are represented by yellow and red dots on the map.

Hover mouse over dot to see the name of the station.

Then click to see weather observations and forecasts.

To change the map : click on the green buttons with a black cross to zoom in, on the green button with a dash to zoom out, or on the green arrows for adjacent maps.


METAR-TAF: